Aérodrome :
LOGIN :

S'inscrire | Disclaimer

   EN    FR    IT 

 










Légende :    VFR   VFR Marginal   IFR   IFR Intensif   IFR Très Intensif
Visi : 
Plafond : 
>= 8 km
>= 3000ft
5 à 8 km
1000 à 3000 ft
1500m à 5 km
500 à 1000 ft
800 à 1500m
200 à 500 ft
< 800m
< 200 ft
Symboles :   Orages  Brouillard  Fortes neiges  Fortes précipitations  Vent > 20 kt
SIGMETs :   Divers  Orages  Givrage  Turbulence  Onde Orograph.  Cendres Volcan.







- Altitude de l'aérodrome : 17 ft
- Code IATA : GRQ


EHGG - Groningen Eelde

DERNIER METAR :
  • 261825Z AUTO 29005KT 9999 NSC 07/05 Q1030 NOSIG

METARs EXPIRÉS :
  • 261755Z AUTO 28006KT 250V320 9999 NSC 08/04 Q1029 NOSIG
  • 261725Z AUTO 28005KT 240V310 9999 NSC 08/05 Q1029 NOSIG
  • 261655Z AUTO 29008KT 250V330 9999 NSC 08/04 Q1029 NOSIG
  • 261625Z AUTO 29008KT 260V320 9999 NSC 09/04 Q1029 NOSIG
  • 261555Z AUTO 29008KT 260V320 9999 NSC 09/04 Q1029 NOSIG

TAF COR TAF EHGG
Valide du 26 à 18h jusqu'au 28 à 00h UTC


261709Z 2618/2724 29007KT 9999 BKN045
TEMPO 2618/2622 BKN012
PROB30
TEMPO 2618/2622 BKN009
BECMG 2621/2624 5000 BR
PROB30 2700/2706 1500 BCFG NSC
BECMG 2706/2709 9999 NSW
PROB40 2706/2709 BKN006
BECMG 2718/2721 7000 BKN009
PROB40 2721/2724 4000 BR
Pas de NOTAMs connus pour ce terrain.



MET'MAP, la Météo Aéronautique d'un coup d'oeil ! - Copyright ORBIFLY Décembre 2007 - Disclaimer

ORBIFLY MET'MAP TEAM :

Programmation & Développement : Alexandra Zaïnal
Conception & Développement : Baudouin d'Aumeries
Co-Programmation & Développement : Marc-Olivier Méhu
Soutien technique & logistique : Manuel Goepfert

Contact : metmap@orbifly.com




SOURCES & CREDITS :

   NOAA